Main page
METAR-TAF:

METAR-TAF

Airports :

Chongqing, China

Chongqing Jiangbei International Airport

latitude: 29-31N, longitude: 106-29E, elevation: 351 m

Current weather observation

The report was made 48 minutes ago, at 21:00 UTC
Wind 2 kt from variable directions
Temperature 16°C
Humidity 82%
Pressure 1016 hPa
Visibility 10 km or more
no clouds below 1500 m and no cumulonimbus

METAR: ZUCK 282100Z VRB01MPS CAVOK 16/13 Q1016 NOSIG

Time: 05:48 (21:48 UTC)

Forecast

The report was made 6 hours and 47 minutes ago, at 15:01 UTC
Forecast valid from 28 at 18 UTC to 29 at 18 UTC
Wind 6 kt from the South
Visibility: 6000 m
Scattered clouds at a height of 3300 ft

TAF: ZUCK 281501Z 2818/2918 17003MPS 6000 SCT033 TX26/2907Z TN16/2823Z

Weather observations and forecasts of more than 4000 airports (METAR and TAF reports).

The available stations are represented by yellow and red dots on the map.

Hover mouse over dot to see the name of the station.

Then click to see weather observations and forecasts.

To change the map : click on the green buttons with a black cross to zoom in, on the green button with a dash to zoom out, or on the green arrows for adjacent maps.


METAR-TAF: